sensor_id;sensor_type;location;lat;lon;timestamp;temperature;humidity
19000;DHT22;9633;50.980;13.850;2022-10-31T00:00:54;8.70;99.90
19000;DHT22;9633;50.980;13.850;2022-10-31T00:02:27;8.70;99.90
19000;DHT22;9633;50.980;13.850;2022-10-31T00:04:00;8.60;99.90
19000;DHT22;9633;50.980;13.850;2022-10-31T00:05:33;8.60;99.90
19000;DHT22;9633;50.980;13.850;2022-10-31T00:07:06;8.70;99.90
19000;DHT22;9633;50.980;13.850;2022-10-31T00:08:39;8.80;99.90
19000;DHT22;9633;50.980;13.850;2022-10-31T00:10:11;8.80;99.90
19000;DHT22;9633;50.980;13.850;2022-10-31T00:11:45;8.90;99.90
19000;DHT22;9633;50.980;13.850;2022-10-31T00:13:18;8.90;99.90
19000;DHT22;9633;50.980;13.850;2022-10-31T00:14:50;8.90;99.90
19000;DHT22;9633;50.980;13.850;2022-10-31T00:16:25;8.90;99.90
19000;DHT22;9633;50.980;13.850;2022-10-31T00:17:58;8.90;99.90
19000;DHT22;9633;50.980;13.850;2022-10-31T00:19:32;9.00;99.90
19000;DHT22;9633;50.980;13.850;2022-10-31T00:21:05;8.90;99.90
19000;DHT22;9633;50.980;13.850;2022-10-31T00:22:37;8.90;99.90
19000;DHT22;9633;50.980;13.850;2022-10-31T00:24:10;8.90;99.90
19000;DHT22;9633;50.980;13.850;2022-10-31T00:25:43;8.90;99.90
19000;DHT22;9633;50.980;13.850;2022-10-31T00:27:16;8.90;99.90
19000;DHT22;9633;50.980;13.850;2022-10-31T00:28:50;8.80;99.90
19000;DHT22;9633;50.980;13.850;2022-10-31T00:30:23;8.80;99.90
19000;DHT22;9633;50.980;13.850;2022-10-31T00:31:58;8.70;99.90
19000;DHT22;9633;50.980;13.850;2022-10-31T00:33:33;8.70;99.90
19000;DHT22;9633;50.980;13.850;2022-10-31T00:35:06;8.80;99.90
19000;DHT22;9633;50.980;13.850;2022-10-31T00:36:39;8.80;99.90
19000;DHT22;9633;50.980;13.850;2022-10-31T00:38:17;8.80;99.90
19000;DHT22;9633;50.980;13.850;2022-10-31T00:39:50;8.70;99.90
19000;DHT22;9633;50.980;13.850;2022-10-31T00:41:23;8.60;99.90
19000;DHT22;9633;50.980;13.850;2022-10-31T00:42:56;8.50;99.90
19000;DHT22;9633;50.980;13.850;2022-10-31T00:44:30;8.40;99.90
19000;DHT22;9633;50.980;13.850;2022-10-31T00:46:04;8.40;99.90
19000;DHT22;9633;50.980;13.850;2022-10-31T00:47:37;8.30;99.90
19000;DHT22;9633;50.980;13.850;2022-10-31T00:49:10;8.30;99.90
19000;DHT22;9633;50.980;13.850;2022-10-31T00:50:44;8.40;99.90
19000;DHT22;9633;50.980;13.850;2022-10-31T00:52:16;8.30;99.90
19000;DHT22;9633;50.980;13.850;2022-10-31T00:53:49;8.40;99.90
19000;DHT22;9633;50.980;13.850;2022-10-31T00:55:22;8.40;99.90
19000;DHT22;9633;50.980;13.850;2022-10-31T00:56:56;8.40;99.90
19000;DHT22;9633;50.980;13.850;2022-10-31T00:58:29;8.50;99.90
19000;DHT22;9633;50.980;13.850;2022-10-31T01:00:03;8.30;99.90
19000;DHT22;9633;50.980;13.850;2022-10-31T01:01:35;8.30;99.90
19000;DHT22;9633;50.980;13.850;2022-10-31T01:03:10;8.30;99.90
19000;DHT22;9633;50.980;13.850;2022-10-31T01:04:45;8.30;99.90
19000;DHT22;9633;50.980;13.850;2022-10-31T01:06:18;8.40;99.90
19000;DHT22;9633;50.980;13.850;2022-10-31T01:07:52;8.50;99.90
19000;DHT22;9633;50.980;13.850;2022-10-31T01:09:24;8.50;99.90
19000;DHT22;9633;50.980;13.850;2022-10-31T01:11:06;8.50;99.90
19000;DHT22;9633;50.980;13.850;2022-10-31T01:12:39;8.50;99.90
19000;DHT22;9633;50.980;13.850;2022-10-31T01:14:13;8.40;99.90
19000;DHT22;9633;50.980;13.850;2022-10-31T01:15:53;8.30;99.90
19000;DHT22;9633;50.980;13.850;2022-10-31T01:17:25;8.20;99.90
19000;DHT22;9633;50.980;13.850;2022-10-31T01:19:00;8.20;99.90
19000;DHT22;9633;50.980;13.850;2022-10-31T01:20:33;8.20;99.90
19000;DHT22;9633;50.980;13.850;2022-10-31T01:22:05;8.10;99.90
19000;DHT22;9633;50.980;13.850;2022-10-31T01:23:39;8.10;99.90
19000;DHT22;9633;50.980;13.850;2022-10-31T01:25:12;8.00;99.90
19000;DHT22;9633;50.980;13.850;2022-10-31T01:26:45;8.00;99.90
19000;DHT22;9633;50.980;13.850;2022-10-31T01:28:18;8.00;99.90
19000;DHT22;9633;50.980;13.850;2022-10-31T01:29:51;7.90;99.90
19000;DHT22;9633;50.980;13.850;2022-10-31T01:31:26;7.90;99.90
19000;DHT22;9633;50.980;13.850;2022-10-31T01:32:59;7.90;99.90
19000;DHT22;9633;50.980;13.850;2022-10-31T01:34:34;7.90;99.90
19000;DHT22;9633;50.980;13.850;2022-10-31T01:36:16;7.90;99.90
19000;DHT22;9633;50.980;13.850;2022-10-31T01:37:49;7.90;99.90
19000;DHT22;9633;50.980;13.850;2022-10-31T01:39:22;8.00;99.90
19000;DHT22;9633;50.980;13.850;2022-10-31T01:40:55;7.90;99.90
19000;DHT22;9633;50.980;13.850;2022-10-31T01:42:28;7.90;99.90
19000;DHT22;9633;50.980;13.850;2022-10-31T01:44:44;8.00;99.90
19000;DHT22;9633;50.980;13.850;2022-10-31T01:45:56;8.00;99.90
19000;DHT22;9633;50.980;13.850;2022-10-31T01:47:40;8.00;99.90
19000;DHT22;9633;50.980;13.850;2022-10-31T01:49:15;7.90;99.90
19000;DHT22;9633;50.980;13.850;2022-10-31T01:50:53;7.90;99.90
19000;DHT22;9633;50.980;13.850;2022-10-31T01:52:29;7.80;99.90
19000;DHT22;9633;50.980;13.850;2022-10-31T01:54:06;7.80;99.90
19000;DHT22;9633;50.980;13.850;2022-10-31T01:55:42;7.80;99.90
19000;DHT22;9633;50.980;13.850;2022-10-31T01:57:20;8.00;99.90
19000;DHT22;9633;50.980;13.850;2022-10-31T01:58:56;8.10;99.90
19000;DHT22;9633;50.980;13.850;2022-10-31T02:00:31;8.00;99.90
19000;DHT22;9633;50.980;13.850;2022-10-31T02:02:05;8.00;99.90
19000;DHT22;9633;50.980;13.850;2022-10-31T02:03:39;8.00;99.90
19000;DHT22;9633;50.980;13.850;2022-10-31T02:05:15;7.90;99.90
19000;DHT22;9633;50.980;13.850;2022-10-31T02:06:53;7.90;99.90
19000;DHT22;9633;50.980;13.850;2022-10-31T02:08:29;7.90;99.90
19000;DHT22;9633;50.980;13.850;2022-10-31T02:10:03;7.80;99.90
19000;DHT22;9633;50.980;13.850;2022-10-31T02:11:36;7.70;99.90
19000;DHT22;9633;50.980;13.850;2022-10-31T02:13:09;7.70;99.90
19000;DHT22;9633;50.980;13.850;2022-10-31T02:14:49;7.60;99.90
19000;DHT22;9633;50.980;13.850;2022-10-31T02:16:23;7.60;99.90
19000;DHT22;9633;50.980;13.850;2022-10-31T02:17:57;7.60;99.90
19000;DHT22;9633;50.980;13.850;2022-10-31T02:19:39;7.50;99.90
19000;DHT22;9633;50.980;13.850;2022-10-31T02:21:19;7.50;99.90
19000;DHT22;9633;50.980;13.850;2022-10-31T02:25:19;7.40;99.90
19000;DHT22;9633;50.980;13.850;2022-10-31T02:27:04;7.40;99.90
19000;DHT22;9633;50.980;13.850;2022-10-31T02:28:56;7.40;99.90
19000;DHT22;9633;50.980;13.850;2022-10-31T02:30:39;7.40;99.90
19000;DHT22;9633;50.980;13.850;2022-10-31T02:32:19;7.40;99.90
19000;DHT22;9633;50.980;13.850;2022-10-31T02:33:55;7.50;99.90
19000;DHT22;9633;50.980;13.850;2022-10-31T02:35:39;7.50;99.90
19000;DHT22;9633;50.980;13.850;2022-10-31T02:37:22;7.60;99.90
19000;DHT22;9633;50.980;13.850;2022-10-31T02:39:06;7.50;99.90
19000;DHT22;9633;50.980;13.850;2022-10-31T02:40:51;7.50;99.90
19000;DHT22;9633;50.980;13.850;2022-10-31T02:42:50;7.60;99.90
19000;DHT22;9633;50.980;13.850;2022-10-31T02:44:30;7.60;99.90
19000;DHT22;9633;50.980;13.850;2022-10-31T02:46:10;7.70;99.90
19000;DHT22;9633;50.980;13.850;2022-10-31T02:47:48;7.80;99.90
19000;DHT22;9633;50.980;13.850;2022-10-31T02:49:26;7.70;99.90
19000;DHT22;9633;50.980;13.850;2022-10-31T02:51:02;7.60;99.90
19000;DHT22;9633;50.980;13.850;2022-10-31T02:52:36;7.60;99.90
19000;DHT22;9633;50.980;13.850;2022-10-31T02:54:18;7.70;99.90
19000;DHT22;9633;50.980;13.850;2022-10-31T02:55:56;7.60;99.90
19000;DHT22;9633;50.980;13.850;2022-10-31T02:57:33;7.50;99.90
19000;DHT22;9633;50.980;13.850;2022-10-31T02:59:07;7.60;99.90
19000;DHT22;9633;50.980;13.850;2022-10-31T03:00:53;7.60;99.90
19000;DHT22;9633;50.980;13.850;2022-10-31T03:02:40;7.50;99.90
19000;DHT22;9633;50.980;13.850;2022-10-31T03:04:53;7.40;99.90
19000;DHT22;9633;50.980;13.850;2022-10-31T03:06:33;7.40;99.90
19000;DHT22;9633;50.980;13.850;2022-10-31T03:08:13;7.30;99.90
19000;DHT22;9633;50.980;13.850;2022-10-31T03:09:53;7.30;99.90
19000;DHT22;9633;50.980;13.850;2022-10-31T03:11:33;7.20;99.90
19000;DHT22;9633;50.980;13.850;2022-10-31T03:13:12;7.20;99.90
19000;DHT22;9633;50.980;13.850;2022-10-31T03:14:52;7.20;99.90
19000;DHT22;9633;50.980;13.850;2022-10-31T03:16:31;7.20;99.90
19000;DHT22;9633;50.980;13.850;2022-10-31T03:18:09;7.10;99.90
19000;DHT22;9633;50.980;13.850;2022-10-31T03:19:46;7.10;99.90
19000;DHT22;9633;50.980;13.850;2022-10-31T03:21:26;7.10;99.90
19000;DHT22;9633;50.980;13.850;2022-10-31T03:23:11;7.10;99.90
19000;DHT22;9633;50.980;13.850;2022-10-31T03:24:46;7.00;99.90
19000;DHT22;9633;50.980;13.850;2022-10-31T03:26:21;7.00;99.90
19000;DHT22;9633;50.980;13.850;2022-10-31T03:27:55;7.10;99.90
19000;DHT22;9633;50.980;13.850;2022-10-31T03:29:33;7.20;99.90
19000;DHT22;9633;50.980;13.850;2022-10-31T03:31:10;7.20;99.90
19000;DHT22;9633;50.980;13.850;2022-10-31T03:32:48;7.20;99.90
19000;DHT22;9633;50.980;13.850;2022-10-31T03:34:22;7.30;99.90
19000;DHT22;9633;50.980;13.850;2022-10-31T03:35:57;7.30;99.90
19000;DHT22;9633;50.980;13.850;2022-10-31T03:37:35;7.40;99.90
19000;DHT22;9633;50.980;13.850;2022-10-31T03:39:17;7.40;99.90
19000;DHT22;9633;50.980;13.850;2022-10-31T03:40:51;7.40;99.90
19000;DHT22;9633;50.980;13.850;2022-10-31T03:42:29;7.30;99.90
19000;DHT22;9633;50.980;13.850;2022-10-31T03:44:07;7.30;99.90
19000;DHT22;9633;50.980;13.850;2022-10-31T03:45:45;7.30;99.90
19000;DHT22;9633;50.980;13.850;2022-10-31T03:47:17;7.30;99.90
19000;DHT22;9633;50.980;13.850;2022-10-31T03:48:52;7.20;99.90
19000;DHT22;9633;50.980;13.850;2022-10-31T03:50:28;7.20;99.90
19000;DHT22;9633;50.980;13.850;2022-10-31T03:52:10;7.20;99.90
19000;DHT22;9633;50.980;13.850;2022-10-31T03:53:51;7.30;99.90
19000;DHT22;9633;50.980;13.850;2022-10-31T03:55:29;7.20;99.90
19000;DHT22;9633;50.980;13.850;2022-10-31T03:57:07;7.10;99.90
19000;DHT22;9633;50.980;13.850;2022-10-31T03:58:46;7.10;99.90
19000;DHT22;9633;50.980;13.850;2022-10-31T04:00:22;7.10;99.90
19000;DHT22;9633;50.980;13.850;2022-10-31T04:02:00;7.00;99.90
19000;DHT22;9633;50.980;13.850;2022-10-31T04:03:36;6.90;99.90
19000;DHT22;9633;50.980;13.850;2022-10-31T04:05:13;6.90;99.90
19000;DHT22;9633;50.980;13.850;2022-10-31T04:06:49;7.00;99.90
19000;DHT22;9633;50.980;13.850;2022-10-31T04:08:26;7.20;99.90
19000;DHT22;9633;50.980;13.850;2022-10-31T04:10:03;7.20;99.90
19000;DHT22;9633;50.980;13.850;2022-10-31T04:11:40;7.10;99.90
19000;DHT22;9633;50.980;13.850;2022-10-31T04:13:34;7.20;99.90
19000;DHT22;9633;50.980;13.850;2022-10-31T04:15:16;7.10;99.90
19000;DHT22;9633;50.980;13.850;2022-10-31T04:16:48;7.00;99.90
19000;DHT22;9633;50.980;13.850;2022-10-31T04:18:22;7.10;99.90
19000;DHT22;9633;50.980;13.850;2022-10-31T04:19:55;7.10;99.90
19000;DHT22;9633;50.980;13.850;2022-10-31T04:21:32;6.90;99.90
19000;DHT22;9633;50.980;13.850;2022-10-31T04:23:14;6.90;99.90
19000;DHT22;9633;50.980;13.850;2022-10-31T04:24:48;7.00;99.90
19000;DHT22;9633;50.980;13.850;2022-10-31T04:26:23;7.10;99.90
19000;DHT22;9633;50.980;13.850;2022-10-31T04:27:57;7.00;99.90
19000;DHT22;9633;50.980;13.850;2022-10-31T04:29:30;7.00;99.90
19000;DHT22;9633;50.980;13.850;2022-10-31T04:31:02;7.10;99.90
19000;DHT22;9633;50.980;13.850;2022-10-31T04:32:37;7.30;99.90
19000;DHT22;9633;50.980;13.850;2022-10-31T04:34:11;7.40;99.90
19000;DHT22;9633;50.980;13.850;2022-10-31T04:35:44;7.50;99.90
19000;DHT22;9633;50.980;13.850;2022-10-31T04:37:18;7.30;99.90
19000;DHT22;9633;50.980;13.850;2022-10-31T04:38:52;7.20;99.90
19000;DHT22;9633;50.980;13.850;2022-10-31T04:40:41;7.20;99.90
19000;DHT22;9633;50.980;13.850;2022-10-31T04:42:41;7.30;99.90
19000;DHT22;9633;50.980;13.850;2022-10-31T04:44:15;7.30;99.90
19000;DHT22;9633;50.980;13.850;2022-10-31T04:45:51;7.30;99.90
19000;DHT22;9633;50.980;13.850;2022-10-31T04:47:24;7.10;99.90
19000;DHT22;9633;50.980;13.850;2022-10-31T04:48:57;7.00;99.90
19000;DHT22;9633;50.980;13.850;2022-10-31T04:50:31;7.00;99.90
19000;DHT22;9633;50.980;13.850;2022-10-31T04:52:03;6.90;99.90
19000;DHT22;9633;50.980;13.850;2022-10-31T04:53:38;6.90;99.90
19000;DHT22;9633;50.980;13.850;2022-10-31T04:55:30;6.90;99.90
19000;DHT22;9633;50.980;13.850;2022-10-31T04:57:21;7.00;99.90
19000;DHT22;9633;50.980;13.850;2022-10-31T04:58:56;7.00;99.90
19000;DHT22;9633;50.980;13.850;2022-10-31T05:00:30;7.10;99.90
19000;DHT22;9633;50.980;13.850;2022-10-31T05:02:03;7.00;99.90
19000;DHT22;9633;50.980;13.850;2022-10-31T05:03:49;7.10;99.90
19000;DHT22;9633;50.980;13.850;2022-10-31T05:05:24;7.10;99.90
19000;DHT22;9633;50.980;13.850;2022-10-31T05:06:57;7.10;99.90
19000;DHT22;9633;50.980;13.850;2022-10-31T05:08:30;7.20;99.90
19000;DHT22;9633;50.980;13.850;2022-10-31T05:10:07;7.20;99.90
19000;DHT22;9633;50.980;13.850;2022-10-31T05:11:41;7.10;99.90
19000;DHT22;9633;50.980;13.850;2022-10-31T05:13:29;6.90;99.90
19000;DHT22;9633;50.980;13.850;2022-10-31T05:15:13;6.80;99.90
19000;DHT22;9633;50.980;13.850;2022-10-31T05:16:46;6.80;99.90
19000;DHT22;9633;50.980;13.850;2022-10-31T05:18:39;6.80;99.90
19000;DHT22;9633;50.980;13.850;2022-10-31T05:20:22;6.70;99.90
19000;DHT22;9633;50.980;13.850;2022-10-31T05:22:18;6.80;99.90
19000;DHT22;9633;50.980;13.850;2022-10-31T05:23:51;6.80;99.90
19000;DHT22;9633;50.980;13.850;2022-10-31T05:25:28;6.80;99.90
19000;DHT22;9633;50.980;13.850;2022-10-31T05:27:01;6.90;99.90
19000;DHT22;9633;50.980;13.850;2022-10-31T05:28:34;7.00;99.90
19000;DHT22;9633;50.980;13.850;2022-10-31T05:30:09;7.00;99.90
19000;DHT22;9633;50.980;13.850;2022-10-31T05:31:44;7.00;99.90
19000;DHT22;9633;50.980;13.850;2022-10-31T05:33:37;7.00;99.90
19000;DHT22;9633;50.980;13.850;2022-10-31T05:35:30;6.90;99.90
19000;DHT22;9633;50.980;13.850;2022-10-31T05:37:22;6.80;99.90
19000;DHT22;9633;50.980;13.850;2022-10-31T05:38:55;6.60;99.90
19000;DHT22;9633;50.980;13.850;2022-10-31T05:40:30;6.60;99.90
19000;DHT22;9633;50.980;13.850;2022-10-31T05:42:03;6.60;99.90
19000;DHT22;9633;50.980;13.850;2022-10-31T05:43:36;6.60;99.90
19000;DHT22;9633;50.980;13.850;2022-10-31T05:45:12;6.60;99.90
19000;DHT22;9633;50.980;13.850;2022-10-31T05:46:52;6.60;99.90
19000;DHT22;9633;50.980;13.850;2022-10-31T05:48:45;6.60;99.90
19000;DHT22;9633;50.980;13.850;2022-10-31T05:50:38;6.70;99.90
19000;DHT22;9633;50.980;13.850;2022-10-31T05:52:15;6.80;99.90
19000;DHT22;9633;50.980;13.850;2022-10-31T05:53:55;6.80;99.90
19000;DHT22;9633;50.980;13.850;2022-10-31T05:55:30;6.90;99.90
19000;DHT22;9633;50.980;13.850;2022-10-31T05:57:22;6.90;99.90
19000;DHT22;9633;50.980;13.850;2022-10-31T05:58:57;7.00;99.90
19000;DHT22;9633;50.980;13.850;2022-10-31T06:00:31;7.00;99.90
19000;DHT22;9633;50.980;13.850;2022-10-31T06:02:12;7.00;99.90
19000;DHT22;9633;50.980;13.850;2022-10-31T06:04:04;7.00;99.90
19000;DHT22;9633;50.980;13.850;2022-10-31T06:05:39;7.00;99.90
19000;DHT22;9633;50.980;13.850;2022-10-31T06:07:12;7.10;99.90
19000;DHT22;9633;50.980;13.850;2022-10-31T06:08:44;7.10;99.90
19000;DHT22;9633;50.980;13.850;2022-10-31T06:10:22;7.20;99.90
19000;DHT22;9633;50.980;13.850;2022-10-31T06:11:58;7.20;99.90
19000;DHT22;9633;50.980;13.850;2022-10-31T06:14:04;7.20;99.90
19000;DHT22;9633;50.980;13.850;2022-10-31T06:15:49;7.20;99.90
19000;DHT22;9633;50.980;13.850;2022-10-31T06:17:27;7.20;99.90
19000;DHT22;9633;50.980;13.850;2022-10-31T06:19:23;7.30;99.90
19000;DHT22;9633;50.980;13.850;2022-10-31T06:20:57;7.20;99.90
19000;DHT22;9633;50.980;13.850;2022-10-31T06:22:30;7.20;99.90
19000;DHT22;9633;50.980;13.850;2022-10-31T06:24:03;7.30;99.90
19000;DHT22;9633;50.980;13.850;2022-10-31T06:25:59;7.30;99.90
19000;DHT22;9633;50.980;13.850;2022-10-31T06:27:33;7.50;99.90
19000;DHT22;9633;50.980;13.850;2022-10-31T06:29:12;7.50;99.90
19000;DHT22;9633;50.980;13.850;2022-10-31T06:31:09;7.60;99.90
19000;DHT22;9633;50.980;13.850;2022-10-31T06:32:44;7.80;99.90
19000;DHT22;9633;50.980;13.850;2022-10-31T06:34:17;8.10;99.90
19000;DHT22;9633;50.980;13.850;2022-10-31T06:35:50;8.60;99.90
19000;DHT22;9633;50.980;13.850;2022-10-31T06:37:24;9.00;99.90
19000;DHT22;9633;50.980;13.850;2022-10-31T06:39:02;9.60;99.90
19000;DHT22;9633;50.980;13.850;2022-10-31T06:40:35;9.90;99.90
19000;DHT22;9633;50.980;13.850;2022-10-31T06:42:20;10.20;99.90
19000;DHT22;9633;50.980;13.850;2022-10-31T06:43:54;10.50;99.90
19000;DHT22;9633;50.980;13.850;2022-10-31T06:45:45;10.90;99.90
19000;DHT22;9633;50.980;13.850;2022-10-31T06:47:38;11.30;99.90
19000;DHT22;9633;50.980;13.850;2022-10-31T06:49:34;11.80;99.90
19000;DHT22;9633;50.980;13.850;2022-10-31T06:51:15;12.30;99.90
19000;DHT22;9633;50.980;13.850;2022-10-31T06:52:52;12.60;99.90
19000;DHT22;9633;50.980;13.850;2022-10-31T06:54:25;12.80;99.90
19000;DHT22;9633;50.980;13.850;2022-10-31T06:55:58;13.00;99.90
19000;DHT22;9633;50.980;13.850;2022-10-31T06:57:31;13.30;99.90
19000;DHT22;9633;50.980;13.850;2022-10-31T06:59:05;13.70;99.90
19000;DHT22;9633;50.980;13.850;2022-10-31T07:01:07;13.70;99.90
19000;DHT22;9633;50.980;13.850;2022-10-31T07:02:40;13.80;99.90
19000;DHT22;9633;50.980;13.850;2022-10-31T07:04:13;13.70;99.90
19000;DHT22;9633;50.980;13.850;2022-10-31T07:05:48;13.70;99.90
19000;DHT22;9633;50.980;13.850;2022-10-31T07:07:21;13.60;99.90
19000;DHT22;9633;50.980;13.850;2022-10-31T07:08:55;13.50;99.90
19000;DHT22;9633;50.980;13.850;2022-10-31T07:10:32;13.40;99.90
19000;DHT22;9633;50.980;13.850;2022-10-31T07:12:12;13.10;99.90
19000;DHT22;9633;50.980;13.850;2022-10-31T07:13:52;13.00;99.90
19000;DHT22;9633;50.980;13.850;2022-10-31T07:15:26;12.90;99.90
19000;DHT22;9633;50.980;13.850;2022-10-31T07:16:59;12.90;99.90
19000;DHT22;9633;50.980;13.850;2022-10-31T07:18:42;12.80;99.90
19000;DHT22;9633;50.980;13.850;2022-10-31T07:20:19;12.80;99.90
19000;DHT22;9633;50.980;13.850;2022-10-31T07:21:53;12.70;99.90
19000;DHT22;9633;50.980;13.850;2022-10-31T07:23:27;12.70;99.90
19000;DHT22;9633;50.980;13.850;2022-10-31T07:25:21;12.50;99.90
19000;DHT22;9633;50.980;13.850;2022-10-31T07:27:06;12.50;99.90
19000;DHT22;9633;50.980;13.850;2022-10-31T07:28:39;12.50;99.90
19000;DHT22;9633;50.980;13.850;2022-10-31T07:30:14;12.40;99.90
19000;DHT22;9633;50.980;13.850;2022-10-31T07:31:49;12.40;99.90
19000;DHT22;9633;50.980;13.850;2022-10-31T07:33:29;12.30;99.90
19000;DHT22;9633;50.980;13.850;2022-10-31T07:35:22;12.30;99.90
19000;DHT22;9633;50.980;13.850;2022-10-31T07:37:02;12.30;99.90
19000;DHT22;9633;50.980;13.850;2022-10-31T07:38:35;12.30;99.90
19000;DHT22;9633;50.980;13.850;2022-10-31T07:40:10;12.30;99.90
19000;DHT22;9633;50.980;13.850;2022-10-31T07:41:44;12.40;99.90
19000;DHT22;9633;50.980;13.850;2022-10-31T07:43:21;12.60;99.90
19000;DHT22;9633;50.980;13.850;2022-10-31T07:45:14;12.80;99.90
19000;DHT22;9633;50.980;13.850;2022-10-31T07:47:06;12.80;99.90
19000;DHT22;9633;50.980;13.850;2022-10-31T07:49:11;13.00;99.90
19000;DHT22;9633;50.980;13.850;2022-10-31T07:51:03;13.40;99.90
19000;DHT22;9633;50.980;13.850;2022-10-31T07:53:11;13.70;99.90
19000;DHT22;9633;50.980;13.850;2022-10-31T07:54:57;14.00;99.90
19000;DHT22;9633;50.980;13.850;2022-10-31T07:56:30;14.10;99.90
19000;DHT22;9633;50.980;13.850;2022-10-31T07:58:05;14.20;99.90
19000;DHT22;9633;50.980;13.850;2022-10-31T07:59:42;14.30;99.90
19000;DHT22;9633;50.980;13.850;2022-10-31T08:01:15;14.30;99.90
19000;DHT22;9633;50.980;13.850;2022-10-31T08:02:59;14.60;99.90
19000;DHT22;9633;50.980;13.850;2022-10-31T08:04:51;14.90;99.90
19000;DHT22;9633;50.980;13.850;2022-10-31T08:06:30;15.10;99.90
19000;DHT22;9633;50.980;13.850;2022-10-31T08:08:16;15.30;99.90
19000;DHT22;9633;50.980;13.850;2022-10-31T08:09:52;15.50;99.90
19000;DHT22;9633;50.980;13.850;2022-10-31T08:11:29;15.80;99.90
19000;DHT22;9633;50.980;13.850;2022-10-31T08:13:04;16.20;99.90
19000;DHT22;9633;50.980;13.850;2022-10-31T08:14:38;16.40;99.90
19000;DHT22;9633;50.980;13.850;2022-10-31T08:16:11;16.50;99.90
19000;DHT22;9633;50.980;13.850;2022-10-31T08:17:55;16.60;99.90
19000;DHT22;9633;50.980;13.850;2022-10-31T08:19:28;16.70;99.90
19000;DHT22;9633;50.980;13.850;2022-10-31T08:21:02;16.90;99.90
19000;DHT22;9633;50.980;13.850;2022-10-31T08:22:35;17.00;99.90
19000;DHT22;9633;50.980;13.850;2022-10-31T08:24:15;17.20;99.90
19000;DHT22;9633;50.980;13.850;2022-10-31T08:25:48;17.30;99.90
19000;DHT22;9633;50.980;13.850;2022-10-31T08:27:21;17.40;99.90
19000;DHT22;9633;50.980;13.850;2022-10-31T08:28:54;17.50;99.90
19000;DHT22;9633;50.980;13.850;2022-10-31T08:30:32;17.70;99.90
19000;DHT22;9633;50.980;13.850;2022-10-31T08:32:25;17.80;99.90
19000;DHT22;9633;50.980;13.850;2022-10-31T08:34:16;18.10;99.90
19000;DHT22;9633;50.980;13.850;2022-10-31T08:36:08;18.10;94.70
19000;DHT22;9633;50.980;13.850;2022-10-31T08:37:56;18.10;86.20
19000;DHT22;9633;50.980;13.850;2022-10-31T08:39:32;18.00;97.20
19000;DHT22;9633;50.980;13.850;2022-10-31T08:41:05;17.80;99.90
19000;DHT22;9633;50.980;13.850;2022-10-31T08:42:38;17.70;99.90
19000;DHT22;9633;50.980;13.850;2022-10-31T08:44:11;17.60;99.90
19000;DHT22;9633;50.980;13.850;2022-10-31T08:45:48;17.60;99.90
19000;DHT22;9633;50.980;13.850;2022-10-31T08:47:28;17.90;99.90
19000;DHT22;9633;50.980;13.850;2022-10-31T08:49:01;18.10;99.90
19000;DHT22;9633;50.980;13.850;2022-10-31T08:50:35;18.40;99.60
19000;DHT22;9633;50.980;13.850;2022-10-31T08:52:09;18.40;70.90
19000;DHT22;9633;50.980;13.850;2022-10-31T08:53:46;18.10;79.70
19000;DHT22;9633;50.980;13.850;2022-10-31T08:55:41;18.10;98.80
19000;DHT22;9633;50.980;13.850;2022-10-31T08:57:27;18.40;79.90
19000;DHT22;9633;50.980;13.850;2022-10-31T08:59:02;18.30;84.60
19000;DHT22;9633;50.980;13.850;2022-10-31T09:00:48;18.10;88.70
19000;DHT22;9633;50.980;13.850;2022-10-31T09:02:24;18.30;99.90
19000;DHT22;9633;50.980;13.850;2022-10-31T09:04:03;18.40;94.00
19000;DHT22;9633;50.980;13.850;2022-10-31T09:05:36;18.60;73.70
19000;DHT22;9633;50.980;13.850;2022-10-31T09:07:13;18.70;66.90
19000;DHT22;9633;50.980;13.850;2022-10-31T09:08:54;18.90;49.20
19000;DHT22;9633;50.980;13.850;2022-10-31T09:10:30;19.00;41.60
19000;DHT22;9633;50.980;13.850;2022-10-31T09:12:08;19.10;55.20
19000;DHT22;9633;50.980;13.850;2022-10-31T09:14:14;19.30;25.00
19000;DHT22;9633;50.980;13.850;2022-10-31T09:16:22;19.60;38.10
19000;DHT22;9633;50.980;13.850;2022-10-31T09:17:55;20.00;10.00
19000;DHT22;9633;50.980;13.850;2022-10-31T09:19:35;20.00;7.60
19000;DHT22;9633;50.980;13.850;2022-10-31T09:21:10;20.10;2.30
19000;DHT22;9633;50.980;13.850;2022-10-31T09:22:43;19.90;9.00
19000;DHT22;9633;50.980;13.850;2022-10-31T09:24:17;20.00;14.20
19000;DHT22;9633;50.980;13.850;2022-10-31T09:25:52;20.00;12.10
19000;DHT22;9633;50.980;13.850;2022-10-31T09:27:49;20.30;1.50
19000;DHT22;9633;50.980;13.850;2022-10-31T09:29:23;20.50;1.00
19000;DHT22;9633;50.980;13.850;2022-10-31T09:31:01;20.60;1.00
19000;DHT22;9633;50.980;13.850;2022-10-31T09:32:59;20.70;1.90
19000;DHT22;9633;50.980;13.850;2022-10-31T09:34:33;21.00;7.70
19000;DHT22;9633;50.980;13.850;2022-10-31T09:36:17;21.30;10.90
19000;DHT22;9633;50.980;13.850;2022-10-31T09:37:54;21.40;17.60
19000;DHT22;9633;50.980;13.850;2022-10-31T09:39:28;21.80;18.80
19000;DHT22;9633;50.980;13.850;2022-10-31T09:41:19;21.90;23.60
19000;DHT22;9633;50.980;13.850;2022-10-31T09:43:02;22.10;25.50
19000;DHT22;9633;50.980;13.850;2022-10-31T09:44:49;22.30;27.40
19000;DHT22;9633;50.980;13.850;2022-10-31T09:46:47;22.60;33.40
19000;DHT22;9633;50.980;13.850;2022-10-31T09:48:35;22.90;41.00
19000;DHT22;9633;50.980;13.850;2022-10-31T09:50:21;23.00;47.00
19000;DHT22;9633;50.980;13.850;2022-10-31T09:51:59;22.80;56.90
19000;DHT22;9633;50.980;13.850;2022-10-31T09:53:39;23.00;57.40
19000;DHT22;9633;50.980;13.850;2022-10-31T09:55:18;23.20;56.40
19000;DHT22;9633;50.980;13.850;2022-10-31T09:56:52;23.20;61.30
19000;DHT22;9633;50.980;13.850;2022-10-31T09:58:28;23.00;60.30
19000;DHT22;9633;50.980;13.850;2022-10-31T10:00:15;23.20;59.00
19000;DHT22;9633;50.980;13.850;2022-10-31T10:01:53;23.40;60.40
19000;DHT22;9633;50.980;13.850;2022-10-31T10:03:33;23.50;65.60
19000;DHT22;9633;50.980;13.850;2022-10-31T10:05:26;23.50;69.00
19000;DHT22;9633;50.980;13.850;2022-10-31T10:07:10;23.60;74.70
19000;DHT22;9633;50.980;13.850;2022-10-31T10:08:48;23.70;74.40
19000;DHT22;9633;50.980;13.850;2022-10-31T10:10:48;23.90;75.50
19000;DHT22;9633;50.980;13.850;2022-10-31T10:12:40;24.00;73.60
19000;DHT22;9633;50.980;13.850;2022-10-31T10:14:31;23.90;75.70
19000;DHT22;9633;50.980;13.850;2022-10-31T10:16:17;24.10;78.20
19000;DHT22;9633;50.980;13.850;2022-10-31T10:17:59;24.40;77.80
19000;DHT22;9633;50.980;13.850;2022-10-31T10:20:01;24.90;79.30
19000;DHT22;9633;50.980;13.850;2022-10-31T10:21:42;24.80;77.20
19000;DHT22;9633;50.980;13.850;2022-10-31T10:23:30;24.60;81.50
19000;DHT22;9633;50.980;13.850;2022-10-31T10:25:15;24.90;83.00
19000;DHT22;9633;50.980;13.850;2022-10-31T10:26:54;25.10;82.30
19000;DHT22;9633;50.980;13.850;2022-10-31T10:28:30;25.00;82.50
19000;DHT22;9633;50.980;13.850;2022-10-31T10:30:15;25.10;83.90
19000;DHT22;9633;50.980;13.850;2022-10-31T10:31:49;25.50;87.10
19000;DHT22;9633;50.980;13.850;2022-10-31T10:33:26;25.30;86.20